Terminal Aerodrome Forecast
Issued by NWS

Home | Current Version | Previous Version | Text Only | Print | Product List | Glossary On
Versions: 1 2 3 4 5 6 7 8 9 10 11 12 13 14 15
000
FTUS41 KCAR 231100
TAFFVE
TAF
KFVE 231126Z 2312/2412 05010KT P6SM OVC035
     FM231400 05010KT P6SM OVC025
     FM231700 05010G20KT P6SM SCT025 OVC050
     FM240000 05015G25KT P6SM -RA OVC025
     FM240300 04015G22KT P6SM -RA OVC015
     FM240900 03014G22KT 3SM RA OVC007=

USA.gov is the U.S. government's official web portal to all federal, state and local government web resources and services.